sensor_id;sensor_type;location;lat;lon;timestamp;pressure;altitude;pressure_sealevel;temperature;humidity
19884;BME280;10104;50.732;10.174;2023-07-31T00:01:54;97618.56;;;17.45;76.61
19884;BME280;10104;50.732;10.174;2023-07-31T00:04:15;97606.41;;;17.54;77.26
19884;BME280;10104;50.732;10.174;2023-07-31T00:06:37;97617.81;;;17.61;77.15
19884;BME280;10104;50.732;10.174;2023-07-31T00:08:59;97610.13;;;17.65;76.83
19884;BME280;10104;50.732;10.174;2023-07-31T00:11:20;97622.00;;;17.57;76.42
19884;BME280;10104;50.732;10.174;2023-07-31T00:13:42;97612.31;;;17.68;77.05
19884;BME280;10104;50.732;10.174;2023-07-31T00:16:03;97608.25;;;17.54;76.70
19884;BME280;10104;50.732;10.174;2023-07-31T00:18:25;97596.25;;;17.56;76.80
19884;BME280;10104;50.732;10.174;2023-07-31T00:20:47;97603.69;;;17.66;76.36
19884;BME280;10104;50.732;10.174;2023-07-31T00:23:08;97599.91;;;17.78;75.32
19884;BME280;10104;50.732;10.174;2023-07-31T00:25:30;97599.34;;;17.76;75.85
19884;BME280;10104;50.732;10.174;2023-07-31T00:27:51;97595.59;;;17.77;75.72
19884;BME280;10104;50.732;10.174;2023-07-31T00:30:13;97604.06;;;17.86;76.24
19884;BME280;10104;50.732;10.174;2023-07-31T00:32:34;97612.41;;;17.73;76.14
19884;BME280;10104;50.732;10.174;2023-07-31T00:34:56;97598.44;;;17.71;76.03
19884;BME280;10104;50.732;10.174;2023-07-31T00:37:17;97600.94;;;17.77;76.02
19884;BME280;10104;50.732;10.174;2023-07-31T00:39:39;97597.00;;;17.80;75.79
19884;BME280;10104;50.732;10.174;2023-07-31T00:42:00;97585.38;;;17.74;75.38
19884;BME280;10104;50.732;10.174;2023-07-31T00:44:22;97589.53;;;17.82;76.21
19884;BME280;10104;50.732;10.174;2023-07-31T00:46:44;97576.06;;;17.77;75.88
19884;BME280;10104;50.732;10.174;2023-07-31T00:49:05;97583.44;;;17.70;76.65
19884;BME280;10104;50.732;10.174;2023-07-31T00:51:27;97581.88;;;17.74;76.33
19884;BME280;10104;50.732;10.174;2023-07-31T00:53:49;97566.63;;;17.74;76.65
19884;BME280;10104;50.732;10.174;2023-07-31T00:56:10;97565.97;;;17.67;77.68
19884;BME280;10104;50.732;10.174;2023-07-31T00:58:32;97561.19;;;17.69;77.29
19884;BME280;10104;50.732;10.174;2023-07-31T01:00:54;97560.97;;;17.59;78.97
19884;BME280;10104;50.732;10.174;2023-07-31T01:03:16;97559.09;;;17.60;79.92
19884;BME280;10104;50.732;10.174;2023-07-31T01:06:14;97558.75;;;17.68;80.91
19884;BME280;10104;50.732;10.174;2023-07-31T01:08:43;97567.75;;;17.62;82.13
19884;BME280;10104;50.732;10.174;2023-07-31T01:11:14;97554.25;;;17.57;83.11
19884;BME280;10104;50.732;10.174;2023-07-31T01:13:37;97550.56;;;17.46;84.67
19884;BME280;10104;50.732;10.174;2023-07-31T01:15:59;97560.53;;;17.34;86.13
19884;BME280;10104;50.732;10.174;2023-07-31T01:18:20;97552.44;;;17.46;87.44
19884;BME280;10104;50.732;10.174;2023-07-31T01:20:43;97555.72;;;17.36;87.43
19884;BME280;10104;50.732;10.174;2023-07-31T01:26:24;97547.06;;;17.17;90.28
19884;BME280;10104;50.732;10.174;2023-07-31T01:31:16;97553.66;;;16.98;92.99
19884;BME280;10104;50.732;10.174;2023-07-31T01:33:40;97544.84;;;16.86;94.79
19884;BME280;10104;50.732;10.174;2023-07-31T01:36:02;97543.69;;;16.82;94.86
19884;BME280;10104;50.732;10.174;2023-07-31T01:38:23;97538.69;;;16.85;95.98
19884;BME280;10104;50.732;10.174;2023-07-31T01:40:51;97532.78;;;16.83;95.67
19884;BME280;10104;50.732;10.174;2023-07-31T01:43:12;97533.59;;;16.84;96.49
19884;BME280;10104;50.732;10.174;2023-07-31T01:45:34;97529.06;;;16.73;97.10
19884;BME280;10104;50.732;10.174;2023-07-31T01:47:55;97525.34;;;16.74;97.32
19884;BME280;10104;50.732;10.174;2023-07-31T01:50:17;97527.69;;;16.58;97.76
19884;BME280;10104;50.732;10.174;2023-07-31T01:52:39;97526.03;;;16.57;98.19
19884;BME280;10104;50.732;10.174;2023-07-31T01:55:00;97531.53;;;16.63;97.96
19884;BME280;10104;50.732;10.174;2023-07-31T01:57:22;97521.66;;;16.63;97.95
19884;BME280;10104;50.732;10.174;2023-07-31T01:59:43;97527.59;;;16.65;98.05
19884;BME280;10104;50.732;10.174;2023-07-31T02:02:05;97520.94;;;16.68;97.94
19884;BME280;10104;50.732;10.174;2023-07-31T02:04:27;97523.88;;;16.66;98.34
19884;BME280;10104;50.732;10.174;2023-07-31T02:06:48;97519.78;;;16.64;97.67
19884;BME280;10104;50.732;10.174;2023-07-31T02:09:10;97517.69;;;16.66;98.45
19884;BME280;10104;50.732;10.174;2023-07-31T02:11:31;97535.09;;;16.56;98.94
19884;BME280;10104;50.732;10.174;2023-07-31T02:13:53;97520.59;;;16.52;98.83
19884;BME280;10104;50.732;10.174;2023-07-31T02:16:14;97517.56;;;16.49;98.91
19884;BME280;10104;50.732;10.174;2023-07-31T02:22:11;97509.91;;;16.52;98.89
19884;BME280;10104;50.732;10.174;2023-07-31T02:24:33;97516.41;;;16.56;98.76
19884;BME280;10104;50.732;10.174;2023-07-31T02:26:54;97513.16;;;16.43;99.06
19884;BME280;10104;50.732;10.174;2023-07-31T02:29:16;97516.88;;;16.42;99.91
19884;BME280;10104;50.732;10.174;2023-07-31T02:31:37;97520.84;;;16.39;100.00
19884;BME280;10104;50.732;10.174;2023-07-31T02:33:59;97521.19;;;16.43;100.00
19884;BME280;10104;50.732;10.174;2023-07-31T02:36:20;97520.03;;;16.39;99.76
19884;BME280;10104;50.732;10.174;2023-07-31T02:38:42;97520.47;;;16.36;100.00
19884;BME280;10104;50.732;10.174;2023-07-31T02:41:03;97506.66;;;16.39;100.00
19884;BME280;10104;50.732;10.174;2023-07-31T02:43:25;97512.59;;;16.41;100.00
19884;BME280;10104;50.732;10.174;2023-07-31T02:45:51;97499.78;;;16.43;100.00
19884;BME280;10104;50.732;10.174;2023-07-31T02:48:13;97501.06;;;16.52;100.00
19884;BME280;10104;50.732;10.174;2023-07-31T02:50:34;97497.69;;;16.56;99.38
19884;BME280;10104;50.732;10.174;2023-07-31T02:52:56;97508.03;;;16.53;100.00
19884;BME280;10104;50.732;10.174;2023-07-31T02:55:17;97502.44;;;16.54;100.00
19884;BME280;10104;50.732;10.174;2023-07-31T02:57:39;97501.41;;;16.55;100.00
19884;BME280;10104;50.732;10.174;2023-07-31T03:00:00;97504.34;;;16.54;100.00
19884;BME280;10104;50.732;10.174;2023-07-31T03:02:22;97505.69;;;16.56;100.00
19884;BME280;10104;50.732;10.174;2023-07-31T03:04:44;97512.44;;;16.59;100.00
19884;BME280;10104;50.732;10.174;2023-07-31T03:07:06;97504.69;;;16.46;100.00
19884;BME280;10104;50.732;10.174;2023-07-31T03:09:27;97497.59;;;16.63;100.00
19884;BME280;10104;50.732;10.174;2023-07-31T03:11:49;97504.56;;;16.64;100.00
19884;BME280;10104;50.732;10.174;2023-07-31T03:14:10;97503.41;;;16.60;99.68
19884;BME280;10104;50.732;10.174;2023-07-31T03:16:32;97502.22;;;16.68;99.50
19884;BME280;10104;50.732;10.174;2023-07-31T03:18:54;97503.16;;;16.50;99.67
19884;BME280;10104;50.732;10.174;2023-07-31T03:21:15;97504.88;;;16.56;99.63
19884;BME280;10104;50.732;10.174;2023-07-31T03:23:37;97510.81;;;16.58;98.72
19884;BME280;10104;50.732;10.174;2023-07-31T03:26:01;97498.63;;;16.50;98.78
19884;BME280;10104;50.732;10.174;2023-07-31T03:28:24;97495.38;;;16.48;100.00
19884;BME280;10104;50.732;10.174;2023-07-31T03:30:46;97506.88;;;16.61;99.05
19884;BME280;10104;50.732;10.174;2023-07-31T03:33:07;97498.84;;;16.72;98.54
19884;BME280;10104;50.732;10.174;2023-07-31T03:35:29;97496.97;;;16.73;98.04
19884;BME280;10104;50.732;10.174;2023-07-31T03:37:50;97490.03;;;16.72;97.90
19884;BME280;10104;50.732;10.174;2023-07-31T03:40:12;97490.16;;;16.65;98.05
19884;BME280;10104;50.732;10.174;2023-07-31T03:42:33;97490.13;;;16.77;97.16
19884;BME280;10104;50.732;10.174;2023-07-31T03:44:55;97488.81;;;16.79;96.29
19884;BME280;10104;50.732;10.174;2023-07-31T03:47:17;97491.84;;;16.83;96.23
19884;BME280;10104;50.732;10.174;2023-07-31T03:49:38;97489.41;;;16.81;96.20
19884;BME280;10104;50.732;10.174;2023-07-31T03:52:00;97487.25;;;16.95;95.70
19884;BME280;10104;50.732;10.174;2023-07-31T03:54:21;97490.34;;;17.04;95.23
19884;BME280;10104;50.732;10.174;2023-07-31T03:56:43;97484.31;;;17.08;94.48
19884;BME280;10104;50.732;10.174;2023-07-31T03:59:05;97484.44;;;17.02;94.32
19884;BME280;10104;50.732;10.174;2023-07-31T04:01:26;97486.44;;;16.94;95.16
19884;BME280;10104;50.732;10.174;2023-07-31T04:03:48;97486.22;;;16.96;95.17
19884;BME280;10104;50.732;10.174;2023-07-31T04:06:09;97481.41;;;16.98;94.74
19884;BME280;10104;50.732;10.174;2023-07-31T04:08:31;97480.59;;;17.09;94.17
19884;BME280;10104;50.732;10.174;2023-07-31T04:10:53;97475.72;;;17.23;92.42
19884;BME280;10104;50.732;10.174;2023-07-31T04:13:15;97472.16;;;17.17;92.36
19884;BME280;10104;50.732;10.174;2023-07-31T04:15:36;97466.72;;;17.12;93.17
19884;BME280;10104;50.732;10.174;2023-07-31T04:17:58;97483.66;;;17.18;92.31
19884;BME280;10104;50.732;10.174;2023-07-31T04:20:19;97480.91;;;17.13;92.64
19884;BME280;10104;50.732;10.174;2023-07-31T04:22:41;97481.22;;;17.16;91.74
19884;BME280;10104;50.732;10.174;2023-07-31T04:25:02;97478.00;;;17.14;92.33
19884;BME280;10104;50.732;10.174;2023-07-31T04:27:25;97469.22;;;17.02;92.73
19884;BME280;10104;50.732;10.174;2023-07-31T04:29:46;97472.50;;;17.21;92.71
19884;BME280;10104;50.732;10.174;2023-07-31T04:32:08;97466.03;;;17.33;91.58
19884;BME280;10104;50.732;10.174;2023-07-31T04:34:30;97460.09;;;17.31;91.46
19884;BME280;10104;50.732;10.174;2023-07-31T04:36:51;97454.25;;;17.34;91.49
19884;BME280;10104;50.732;10.174;2023-07-31T04:39:13;97454.22;;;17.63;89.85
19884;BME280;10104;50.732;10.174;2023-07-31T04:41:34;97460.19;;;17.53;89.47
19884;BME280;10104;50.732;10.174;2023-07-31T04:43:56;97470.41;;;17.39;89.33
19884;BME280;10104;50.732;10.174;2023-07-31T04:46:17;97457.84;;;17.40;89.75
19884;BME280;10104;50.732;10.174;2023-07-31T04:48:39;97469.25;;;17.35;90.05
19884;BME280;10104;50.732;10.174;2023-07-31T04:51:00;97458.16;;;17.27;90.69
19884;BME280;10104;50.732;10.174;2023-07-31T04:53:22;97466.03;;;17.33;91.73
19884;BME280;10104;50.732;10.174;2023-07-31T04:55:44;97456.31;;;17.44;90.49
19884;BME280;10104;50.732;10.174;2023-07-31T04:58:05;97461.31;;;17.40;90.24
19884;BME280;10104;50.732;10.174;2023-07-31T05:00:27;97457.03;;;17.39;89.96
19884;BME280;10104;50.732;10.174;2023-07-31T05:02:48;97462.94;;;17.42;90.83
19884;BME280;10104;50.732;10.174;2023-07-31T05:05:10;97467.03;;;17.61;90.32
19884;BME280;10104;50.732;10.174;2023-07-31T05:07:31;97475.16;;;17.66;89.01
19884;BME280;10104;50.732;10.174;2023-07-31T05:09:53;97477.84;;;17.66;89.56
19884;BME280;10104;50.732;10.174;2023-07-31T05:12:18;97486.22;;;17.69;87.79
19884;BME280;10104;50.732;10.174;2023-07-31T05:14:40;97478.91;;;17.65;89.08
19884;BME280;10104;50.732;10.174;2023-07-31T05:17:01;97471.19;;;17.85;88.60
19884;BME280;10104;50.732;10.174;2023-07-31T05:19:23;97476.88;;;17.89;88.37
19884;BME280;10104;50.732;10.174;2023-07-31T05:21:44;97472.41;;;17.94;87.58
19884;BME280;10104;50.732;10.174;2023-07-31T05:24:06;97478.00;;;17.76;87.28
19884;BME280;10104;50.732;10.174;2023-07-31T05:26:27;97469.72;;;17.94;87.68
19884;BME280;10104;50.732;10.174;2023-07-31T05:28:49;97471.00;;;17.92;87.85
19884;BME280;10104;50.732;10.174;2023-07-31T05:31:11;97472.78;;;18.03;86.79
19884;BME280;10104;50.732;10.174;2023-07-31T05:33:32;97466.97;;;17.89;86.89
19884;BME280;10104;50.732;10.174;2023-07-31T05:35:54;97476.53;;;17.85;88.06
19884;BME280;10104;50.732;10.174;2023-07-31T05:38:15;97477.94;;;17.88;87.52
19884;BME280;10104;50.732;10.174;2023-07-31T05:40:37;97476.53;;;17.85;87.59
19884;BME280;10104;50.732;10.174;2023-07-31T05:42:58;97484.97;;;17.94;87.84
19884;BME280;10104;50.732;10.174;2023-07-31T05:45:20;97488.63;;;18.04;86.05
19884;BME280;10104;50.732;10.174;2023-07-31T05:47:41;97481.97;;;18.07;85.69
19884;BME280;10104;50.732;10.174;2023-07-31T05:50:03;97486.44;;;18.01;85.32
19884;BME280;10104;50.732;10.174;2023-07-31T05:52:25;97487.50;;;18.00;86.77
19884;BME280;10104;50.732;10.174;2023-07-31T05:54:46;97474.75;;;18.29;85.45
19884;BME280;10104;50.732;10.174;2023-07-31T05:57:08;97482.97;;;18.23;86.02
19884;BME280;10104;50.732;10.174;2023-07-31T05:59:29;97479.81;;;18.26;85.72
19884;BME280;10104;50.732;10.174;2023-07-31T06:01:54;97476.22;;;18.37;84.66
19884;BME280;10104;50.732;10.174;2023-07-31T06:04:15;97476.56;;;18.24;84.66
19884;BME280;10104;50.732;10.174;2023-07-31T06:06:37;97480.69;;;18.31;85.19
19884;BME280;10104;50.732;10.174;2023-07-31T06:08:59;97478.78;;;18.27;84.61
19884;BME280;10104;50.732;10.174;2023-07-31T06:11:21;97480.31;;;18.23;85.14
19884;BME280;10104;50.732;10.174;2023-07-31T06:13:43;97481.94;;;18.24;84.12
19884;BME280;10104;50.732;10.174;2023-07-31T06:16:06;97489.03;;;18.13;84.96
19884;BME280;10104;50.732;10.174;2023-07-31T06:18:27;97485.50;;;18.29;85.02
19884;BME280;10104;50.732;10.174;2023-07-31T06:20:49;97475.00;;;18.28;85.88
19884;BME280;10104;50.732;10.174;2023-07-31T06:23:14;97477.22;;;18.31;85.71
19884;BME280;10104;50.732;10.174;2023-07-31T06:25:36;97473.72;;;18.30;85.54
19884;BME280;10104;50.732;10.174;2023-07-31T06:27:57;97480.06;;;18.46;84.69
19884;BME280;10104;50.732;10.174;2023-07-31T06:30:19;97478.31;;;18.35;84.94
19884;BME280;10104;50.732;10.174;2023-07-31T06:32:40;97478.78;;;18.48;85.48
19884;BME280;10104;50.732;10.174;2023-07-31T06:35:02;97481.16;;;18.45;84.82
19884;BME280;10104;50.732;10.174;2023-07-31T06:37:24;97474.72;;;18.63;84.41
19884;BME280;10104;50.732;10.174;2023-07-31T06:39:45;97469.66;;;18.66;84.26
19884;BME280;10104;50.732;10.174;2023-07-31T06:42:06;97475.34;;;18.70;83.86
19884;BME280;10104;50.732;10.174;2023-07-31T06:44:28;97470.19;;;18.90;83.14
19884;BME280;10104;50.732;10.174;2023-07-31T06:46:50;97470.03;;;19.02;82.14
19884;BME280;10104;50.732;10.174;2023-07-31T06:49:12;97471.19;;;19.06;82.02
19884;BME280;10104;50.732;10.174;2023-07-31T06:51:37;97470.94;;;18.85;82.16
19884;BME280;10104;50.732;10.174;2023-07-31T06:53:59;97474.19;;;18.87;82.86
19884;BME280;10104;50.732;10.174;2023-07-31T06:56:21;97478.56;;;18.93;83.56
19884;BME280;10104;50.732;10.174;2023-07-31T06:58:43;97474.25;;;18.71;83.75
19884;BME280;10104;50.732;10.174;2023-07-31T07:01:04;97466.81;;;18.78;83.68
19884;BME280;10104;50.732;10.174;2023-07-31T07:03:27;97468.06;;;18.70;84.32
19884;BME280;10104;50.732;10.174;2023-07-31T07:05:48;97465.63;;;18.64;84.63
19884;BME280;10104;50.732;10.174;2023-07-31T07:08:10;97459.53;;;18.51;84.18
19884;BME280;10104;50.732;10.174;2023-07-31T07:10:31;97460.03;;;18.70;84.61
19884;BME280;10104;50.732;10.174;2023-07-31T07:12:53;97464.91;;;18.73;84.47
19884;BME280;10104;50.732;10.174;2023-07-31T07:15:16;97457.59;;;18.90;83.86
19884;BME280;10104;50.732;10.174;2023-07-31T07:17:38;97446.66;;;18.97;83.29
19884;BME280;10104;50.732;10.174;2023-07-31T07:20:00;97449.03;;;18.93;83.64
19884;BME280;10104;50.732;10.174;2023-07-31T07:22:22;97449.34;;;18.97;83.74
19884;BME280;10104;50.732;10.174;2023-07-31T07:24:43;97458.44;;;18.96;83.71
19884;BME280;10104;50.732;10.174;2023-07-31T07:27:05;97459.53;;;18.73;84.16
19884;BME280;10104;50.732;10.174;2023-07-31T07:29:27;97455.03;;;18.79;84.54
19884;BME280;10104;50.732;10.174;2023-07-31T07:31:48;97459.59;;;19.00;84.83
19884;BME280;10104;50.732;10.174;2023-07-31T07:34:09;97455.81;;;19.01;82.27
19884;BME280;10104;50.732;10.174;2023-07-31T07:36:31;97448.75;;;19.17;82.44
19884;BME280;10104;50.732;10.174;2023-07-31T07:38:53;97456.56;;;19.18;81.79
19884;BME280;10104;50.732;10.174;2023-07-31T07:41:15;97460.59;;;19.21;81.46
19884;BME280;10104;50.732;10.174;2023-07-31T07:43:37;97463.97;;;19.38;81.85
19884;BME280;10104;50.732;10.174;2023-07-31T07:45:58;97465.34;;;19.40;81.09
19884;BME280;10104;50.732;10.174;2023-07-31T07:48:20;97467.97;;;19.35;81.41
19884;BME280;10104;50.732;10.174;2023-07-31T07:50:41;97468.59;;;19.43;81.53
19884;BME280;10104;50.732;10.174;2023-07-31T07:53:03;97460.19;;;19.61;80.71
19884;BME280;10104;50.732;10.174;2023-07-31T07:55:24;97464.03;;;19.75;79.11
19884;BME280;10104;50.732;10.174;2023-07-31T07:57:46;97461.19;;;19.87;78.16
19884;BME280;10104;50.732;10.174;2023-07-31T08:00:08;97464.19;;;19.95;77.66
19884;BME280;10104;50.732;10.174;2023-07-31T08:02:31;97453.19;;;19.97;78.19
19884;BME280;10104;50.732;10.174;2023-07-31T08:04:53;97454.31;;;20.06;78.89
19884;BME280;10104;50.732;10.174;2023-07-31T08:07:14;97458.34;;;20.03;77.41
19884;BME280;10104;50.732;10.174;2023-07-31T08:09:36;97455.69;;;20.08;78.26
19884;BME280;10104;50.732;10.174;2023-07-31T08:11:57;97449.84;;;20.16;77.09
19884;BME280;10104;50.732;10.174;2023-07-31T08:14:23;97442.13;;;20.30;76.50
19884;BME280;10104;50.732;10.174;2023-07-31T08:16:44;97439.94;;;20.89;73.79
19884;BME280;10104;50.732;10.174;2023-07-31T08:19:07;97442.13;;;20.97;73.20
19884;BME280;10104;50.732;10.174;2023-07-31T08:21:28;97438.97;;;21.36;71.37
19884;BME280;10104;50.732;10.174;2023-07-31T08:23:51;97437.34;;;21.30;70.27
19884;BME280;10104;50.732;10.174;2023-07-31T08:26:19;97434.66;;;21.20;69.74
19884;BME280;10104;50.732;10.174;2023-07-31T08:28:40;97436.75;;;20.97;70.88
19884;BME280;10104;50.732;10.174;2023-07-31T08:31:02;97450.84;;;21.35;70.04
19884;BME280;10104;50.732;10.174;2023-07-31T08:33:23;97442.75;;;21.50;69.93
19884;BME280;10104;50.732;10.174;2023-07-31T08:35:45;97443.03;;;21.44;68.16
19884;BME280;10104;50.732;10.174;2023-07-31T08:38:08;97445.44;;;21.30;69.05
19884;BME280;10104;50.732;10.174;2023-07-31T08:40:29;97444.56;;;21.09;70.97
19884;BME280;10104;50.732;10.174;2023-07-31T08:42:54;97438.25;;;20.63;72.13
19884;BME280;10104;50.732;10.174;2023-07-31T08:45:17;97434.38;;;20.44;72.38
19884;BME280;10104;50.732;10.174;2023-07-31T08:47:39;97438.25;;;20.68;72.39
19884;BME280;10104;50.732;10.174;2023-07-31T08:50:01;97439.59;;;20.66;71.83
19884;BME280;10104;50.732;10.174;2023-07-31T08:52:23;97444.09;;;21.27;71.07
19884;BME280;10104;50.732;10.174;2023-07-31T08:54:45;97432.25;;;21.69;67.32
19884;BME280;10104;50.732;10.174;2023-07-31T08:57:06;97418.25;;;22.02;66.18
19884;BME280;10104;50.732;10.174;2023-07-31T08:59:30;97413.66;;;21.72;67.12
19884;BME280;10104;50.732;10.174;2023-07-31T09:01:54;97414.50;;;21.53;67.60
19884;BME280;10104;50.732;10.174;2023-07-31T09:04:18;97411.25;;;21.66;65.90
19884;BME280;10104;50.732;10.174;2023-07-31T09:06:42;97405.28;;;21.79;65.30
19884;BME280;10104;50.732;10.174;2023-07-31T09:09:04;97403.66;;;22.13;65.76
19884;BME280;10104;50.732;10.174;2023-07-31T09:11:26;97395.31;;;21.85;63.94
19884;BME280;10104;50.732;10.174;2023-07-31T09:13:48;97401.00;;;21.78;66.31
19884;BME280;10104;50.732;10.174;2023-07-31T09:16:10;97399.31;;;22.17;62.76
19884;BME280;10104;50.732;10.174;2023-07-31T09:18:52;97403.41;;;22.00;64.51
19884;BME280;10104;50.732;10.174;2023-07-31T09:21:13;97406.13;;;21.69;65.94
19884;BME280;10104;50.732;10.174;2023-07-31T09:23:46;97405.03;;;21.75;64.83
19884;BME280;10104;50.732;10.174;2023-07-31T09:26:09;97402.03;;;21.87;65.99
19884;BME280;10104;50.732;10.174;2023-07-31T09:28:31;97402.00;;;22.17;65.53
19884;BME280;10104;50.732;10.174;2023-07-31T09:30:53;97404.16;;;22.21;63.65
19884;BME280;10104;50.732;10.174;2023-07-31T09:33:15;97397.56;;;22.57;64.24
19884;BME280;10104;50.732;10.174;2023-07-31T09:35:37;97414.09;;;22.30;62.69
19884;BME280;10104;50.732;10.174;2023-07-31T09:38:07;97401.88;;;22.58;62.52
19884;BME280;10104;50.732;10.174;2023-07-31T09:40:34;97404.38;;;22.29;63.39
19884;BME280;10104;50.732;10.174;2023-07-31T09:42:58;97409.09;;;22.73;63.14
19884;BME280;10104;50.732;10.174;2023-07-31T09:45:24;97408.25;;;22.82;61.17
19884;BME280;10104;50.732;10.174;2023-07-31T09:48:00;97412.59;;;22.73;60.92
19884;BME280;10104;50.732;10.174;2023-07-31T09:50:23;97400.06;;;22.97;60.72
19884;BME280;10104;50.732;10.174;2023-07-31T09:52:45;97402.53;;;23.28;61.28
19884;BME280;10104;50.732;10.174;2023-07-31T09:55:07;97400.09;;;23.65;60.12
19884;BME280;10104;50.732;10.174;2023-07-31T09:57:30;97398.47;;;23.69;58.28
19884;BME280;10104;50.732;10.174;2023-07-31T09:59:52;97395.56;;;23.90;56.83
19884;BME280;10104;50.732;10.174;2023-07-31T10:02:15;97400.78;;;23.81;57.08
19884;BME280;10104;50.732;10.174;2023-07-31T10:04:43;97408.47;;;23.30;57.72
19884;BME280;10104;50.732;10.174;2023-07-31T10:07:07;97403.22;;;23.10;59.48
19884;BME280;10104;50.732;10.174;2023-07-31T10:09:30;97395.06;;;22.71;60.92
19884;BME280;10104;50.732;10.174;2023-07-31T10:12:02;97393.00;;;22.42;61.72
19884;BME280;10104;50.732;10.174;2023-07-31T10:14:27;97389.00;;;22.30;63.17
19884;BME280;10104;50.732;10.174;2023-07-31T10:16:50;97387.09;;;22.35;62.84
19884;BME280;10104;50.732;10.174;2023-07-31T10:21:34;97390.19;;;21.83;63.76
19884;BME280;10104;50.732;10.174;2023-07-31T10:23:58;97384.81;;;21.73;64.30
19884;BME280;10104;50.732;10.174;2023-07-31T10:26:21;97388.88;;;21.70;65.53
19884;BME280;10104;50.732;10.174;2023-07-31T10:28:46;97383.75;;;21.59;64.36
19884;BME280;10104;50.732;10.174;2023-07-31T10:31:08;97391.84;;;21.69;64.78
19884;BME280;10104;50.732;10.174;2023-07-31T10:33:30;97383.47;;;21.75;66.48
19884;BME280;10104;50.732;10.174;2023-07-31T10:36:12;97391.03;;;21.63;66.63
19884;BME280;10104;50.732;10.174;2023-07-31T10:38:33;97385.09;;;21.66;68.16
19884;BME280;10104;50.732;10.174;2023-07-31T10:41:08;97375.41;;;21.55;67.94
19884;BME280;10104;50.732;10.174;2023-07-31T10:43:32;97383.25;;;21.42;67.65
19884;BME280;10104;50.732;10.174;2023-07-31T10:45:54;97375.94;;;21.42;69.89
19884;BME280;10104;50.732;10.174;2023-07-31T10:48:16;97361.13;;;21.39;70.95
19884;BME280;10104;50.732;10.174;2023-07-31T10:50:38;97371.88;;;21.75;71.13
19884;BME280;10104;50.732;10.174;2023-07-31T10:53:25;97370.25;;;21.89;68.48
19884;BME280;10104;50.732;10.174;2023-07-31T10:55:48;97363.00;;;21.64;66.90
19884;BME280;10104;50.732;10.174;2023-07-31T10:58:12;97374.47;;;22.26;67.95
19884;BME280;10104;50.732;10.174;2023-07-31T11:00:36;97372.84;;;22.25;67.07
19884;BME280;10104;50.732;10.174;2023-07-31T11:03:05;97378.22;;;22.30;67.21
19884;BME280;10104;50.732;10.174;2023-07-31T11:05:56;97364.13;;;22.43;66.34
19884;BME280;10104;50.732;10.174;2023-07-31T11:11:06;97369.69;;;22.77;65.69
19884;BME280;10104;50.732;10.174;2023-07-31T11:15:53;97356.19;;;22.77;63.42
19884;BME280;10104;50.732;10.174;2023-07-31T11:18:15;97346.59;;;22.45;62.60
19884;BME280;10104;50.732;10.174;2023-07-31T11:20:38;97350.13;;;22.46;64.72
19884;BME280;10104;50.732;10.174;2023-07-31T11:23:06;97346.63;;;22.35;65.68
19884;BME280;10104;50.732;10.174;2023-07-31T11:25:30;97355.91;;;22.14;65.11
19884;BME280;10104;50.732;10.174;2023-07-31T11:27:52;97352.69;;;21.92;67.45
19884;BME280;10104;50.732;10.174;2023-07-31T11:30:18;97355.84;;;22.24;66.59
19884;BME280;10104;50.732;10.174;2023-07-31T11:32:40;97355.34;;;22.17;66.98
19884;BME280;10104;50.732;10.174;2023-07-31T11:35:02;97360.91;;;22.41;66.86
19884;BME280;10104;50.732;10.174;2023-07-31T11:37:38;97358.34;;;22.70;66.07
19884;BME280;10104;50.732;10.174;2023-07-31T11:40:01;97347.50;;;22.80;65.17
19884;BME280;10104;50.732;10.174;2023-07-31T11:42:23;97352.81;;;22.95;63.63
19884;BME280;10104;50.732;10.174;2023-07-31T11:44:44;97345.56;;;22.85;64.15
19884;BME280;10104;50.732;10.174;2023-07-31T11:47:09;97344.03;;;22.74;64.40
19884;BME280;10104;50.732;10.174;2023-07-31T11:49:31;97335.06;;;22.84;63.37
19884;BME280;10104;50.732;10.174;2023-07-31T11:51:56;97329.25;;;22.02;66.93
19884;BME280;10104;50.732;10.174;2023-07-31T11:54:18;97341.66;;;22.03;67.56
19884;BME280;10104;50.732;10.174;2023-07-31T11:56:40;97328.16;;;22.08;67.00
19884;BME280;10104;50.732;10.174;2023-07-31T11:59:02;97329.78;;;22.09;65.64
19884;BME280;10104;50.732;10.174;2023-07-31T12:01:26;97328.69;;;22.59;64.23
19884;BME280;10104;50.732;10.174;2023-07-31T12:03:50;97318.53;;;22.95;61.73
19884;BME280;10104;50.732;10.174;2023-07-31T12:06:12;97330.59;;;23.03;62.66
19884;BME280;10104;50.732;10.174;2023-07-31T12:08:33;97313.72;;;22.38;62.10
19884;BME280;10104;50.732;10.174;2023-07-31T12:11:02;97313.25;;;22.16;64.43
19884;BME280;10104;50.732;10.174;2023-07-31T12:13:25;97326.75;;;22.16;62.90
19884;BME280;10104;50.732;10.174;2023-07-31T12:15:48;97312.91;;;22.38;62.43
19884;BME280;10104;50.732;10.174;2023-07-31T12:18:14;97307.03;;;22.75;61.88
19884;BME280;10104;50.732;10.174;2023-07-31T12:20:43;97310.31;;;22.67;61.40
19884;BME280;10104;50.732;10.174;2023-07-31T12:23:05;97315.06;;;22.85;61.36
19884;BME280;10104;50.732;10.174;2023-07-31T12:25:33;97310.56;;;22.75;61.60
19884;BME280;10104;50.732;10.174;2023-07-31T12:27:55;97297.75;;;22.91;59.78
19884;BME280;10104;50.732;10.174;2023-07-31T12:30:29;97291.38;;;22.77;60.31
19884;BME280;10104;50.732;10.174;2023-07-31T12:32:51;97274.34;;;23.10;60.53
19884;BME280;10104;50.732;10.174;2023-07-31T12:35:12;97281.06;;;23.47;60.11
19884;BME280;10104;50.732;10.174;2023-07-31T12:37:34;97285.59;;;23.80;59.47
19884;BME280;10104;50.732;10.174;2023-07-31T12:39:55;97283.00;;;23.41;60.35
19884;BME280;10104;50.732;10.174;2023-07-31T12:42:19;97281.44;;;23.06;61.17
19884;BME280;10104;50.732;10.174;2023-07-31T12:44:41;97286.16;;;22.46;62.37